Time;durP1;ratioP1;P1;durP2;ratioP2;P2;SDS_P1;SDS_P2;PMS_P1;PMS_P2;Temp;Humidity;BMP_temperature;BMP_pressure;BME280_temperature;BME280_humidity;BME280_pressure;Samples;Min_cycle;Max_cycle;Signal;HPM_P1;HPM_P2
2023/04/13 00:02:05;;;;;;;1.30;0.70;;;7.70;99.90;;;;;;5007301;28;20038;-77
2023/04/13 00:04:31;;;;;;;0.77;0.50;;;7.70;99.90;;;;;;4989566;28;20100;-76
2023/04/13 00:07:03;;;;;;;0.80;0.75;;;7.70;99.90;;;;;;5006498;28;20054;-78
2023/04/13 00:09:29;;;;;;;0.57;0.40;;;7.70;99.90;;;;;;4988670;28;20054;-77
2023/04/13 00:11:56;;;;;;;0.80;0.40;;;7.70;99.90;;;;;;5024329;28;20046;-77
2023/04/13 00:14:26;;;;;;;3.67;0.73;;;7.70;99.90;;;;;;5026551;28;20049;-77
2023/04/13 00:16:52;;;;;;;1.05;0.70;;;7.70;99.90;;;;;;5025865;28;20492;-76
2023/04/13 00:19:18;;;;;;;1.05;0.93;;;7.70;99.90;;;;;;5025942;28;20049;-76
2023/04/13 00:21:45;;;;;;;1.63;0.73;;;7.70;99.90;;;;;;5026748;28;20045;-76
2023/04/13 00:24:10;;;;;;;0.35;0.35;;;7.70;99.90;;;;;;5008250;28;20046;-76
2023/04/13 00:26:37;;;;;;;1.95;0.70;;;7.60;99.90;;;;;;5025472;28;20075;-76
2023/04/13 00:29:02;;;;;;;0.95;0.68;;;7.60;99.90;;;;;;5026945;28;20054;-76
2023/04/13 00:31:28;;;;;;;2.17;0.68;;;7.50;99.90;;;;;;5026388;28;20045;-76
2023/04/13 00:33:53;;;;;;;0.60;0.60;;;7.50;99.90;;;;;;5026034;28;20094;-76
2023/04/13 00:36:23;;;;;;;0.40;0.40;;;7.50;99.90;;;;;;5025360;28;20480;-75
2023/04/13 00:38:48;;;;;;;1.42;0.77;;;7.40;99.90;;;;;;5023891;28;20053;-75
2023/04/13 00:41:15;;;;;;;3.45;1.40;;;7.40;99.90;;;;;;5025219;28;20048;-76
2023/04/13 00:43:41;;;;;;;0.70;0.40;;;7.40;99.90;;;;;;5026747;28;20049;-76
2023/04/13 00:46:07;;;;;;;0.68;0.47;;;7.40;99.90;;;;;;5026781;28;20124;-76
2023/04/13 00:48:33;;;;;;;1.20;0.80;;;7.40;99.90;;;;;;5008592;28;20054;-75
2023/04/13 00:51:00;;;;;;;2.05;0.70;;;7.40;99.90;;;;;;5005338;28;20038;-76
2023/04/13 00:53:26;;;;;;;1.30;0.40;;;7.40;99.90;;;;;;5005352;28;20042;-76
2023/04/13 00:55:52;;;;;;;0.55;0.38;;;7.40;99.90;;;;;;5007111;28;20100;-76
2023/04/13 00:58:18;;;;;;;0.57;0.57;;;7.30;99.90;;;;;;5006287;28;20057;-76
2023/04/13 01:00:43;;;;;;;1.85;0.55;;;7.40;99.90;;;;;;5004862;28;20623;-76
2023/04/13 01:03:10;;;;;;;0.55;0.40;;;7.30;99.90;;;;;;5004750;28;20311;-77
2023/04/13 01:06:02;;;;;;;0.70;0.70;;;7.30;99.90;;;;;;5006045;28;20042;-76
2023/04/13 01:08:36;;;;;;;1.00;0.68;;;7.30;99.90;;;;;;5007687;28;20084;-77
2023/04/13 01:11:10;;;;;;;0.93;0.93;;;7.30;99.90;;;;;;5005303;28;20511;-76
2023/04/13 01:13:47;;;;;;;0.80;0.45;;;7.30;99.90;;;;;;5085712;22;20058;-76
2023/04/13 01:16:24;;;;;;;0.57;0.55;;;7.30;99.90;;;;;;5006702;28;20134;-75
2023/04/13 01:18:52;;;;;;;0.82;0.68;;;7.30;99.90;;;;;;5005159;28;20073;-75
2023/04/13 01:21:23;;;;;;;2.25;0.95;;;7.30;99.90;;;;;;5006406;28;20060;-75
2023/04/13 01:24:07;;;;;;;0.32;0.32;;;7.30;99.90;;;;;;5004998;28;20054;-76
2023/04/13 01:26:56;;;;;;;0.35;0.35;;;7.30;99.90;;;;;;5004551;28;20042;-76
2023/04/13 01:29:24;;;;;;;0.68;0.68;;;7.30;99.90;;;;;;5006685;28;20042;-77
2023/04/13 01:31:51;;;;;;;1.48;0.73;;;7.30;99.90;;;;;;5006211;28;20081;-75
2023/04/13 01:34:17;;;;;;;0.30;0.30;;;7.30;99.90;;;;;;5004629;28;20117;-76
2023/04/13 01:36:44;;;;;;;1.17;0.40;;;7.20;99.90;;;;;;5005732;28;20121;-74
2023/04/13 01:39:19;;;;;;;0.80;0.68;;;7.30;99.90;;;;;;5005006;28;20049;-77
2023/04/13 01:41:45;;;;;;;0.75;0.75;;;7.30;99.90;;;;;;5004458;28;20080;-76
2023/04/13 01:44:12;;;;;;;1.80;1.27;;;7.30;99.90;;;;;;5004289;28;20403;-76
2023/04/13 01:46:45;;;;;;;1.05;0.85;;;7.30;99.90;;;;;;5004225;28;20489;-76
2023/04/13 01:49:14;;;;;;;0.50;0.50;;;7.30;99.90;;;;;;5005478;28;20496;-76
2023/04/13 01:51:42;;;;;;;1.45;0.75;;;7.30;99.90;;;;;;5003876;28;20045;-75
2023/04/13 01:54:18;;;;;;;0.50;0.50;;;7.30;99.90;;;;;;5003084;28;20056;-75
2023/04/13 01:56:44;;;;;;;0.35;0.35;;;7.30;99.90;;;;;;5004375;28;20108;-77
2023/04/13 01:59:10;;;;;;;1.08;0.77;;;7.30;99.90;;;;;;5005572;28;20112;-76
2023/04/13 02:01:39;;;;;;;0.77;0.77;;;7.30;99.90;;;;;;5003773;28;20132;-75
2023/04/13 02:04:06;;;;;;;0.22;0.22;;;7.20;99.90;;;;;;5005174;28;20045;-76
2023/04/13 02:06:32;;;;;;;2.60;1.08;;;7.20;99.90;;;;;;5003485;28;20050;-76
2023/04/13 02:08:58;;;;;;;0.50;0.50;;;7.20;99.90;;;;;;5004579;28;20049;-75
2023/04/13 02:11:24;;;;;;;0.85;0.85;;;7.20;99.90;;;;;;5004294;28;20052;-76
2023/04/13 02:13:50;;;;;;;1.45;1.00;;;7.20;99.90;;;;;;5005262;28;20075;-77
2023/04/13 02:16:16;;;;;;;0.55;0.55;;;7.20;99.90;;;;;;5004375;28;20050;-76
2023/04/13 02:18:41;;;;;;;1.70;0.52;;;7.20;99.90;;;;;;4987410;28;20085;-76
2023/04/13 02:21:08;;;;;;;2.35;0.85;;;7.20;99.90;;;;;;5004685;28;20514;-75
2023/04/13 02:23:39;;;;;;;2.13;1.17;;;7.20;99.90;;;;;;5002135;28;20053;-76
2023/04/13 02:26:09;;;;;;;0.57;0.50;;;7.20;99.90;;;;;;5004259;28;20526;-76
2023/04/13 02:28:35;;;;;;;0.45;0.40;;;7.20;99.90;;;;;;5003311;28;20734;-76
2023/04/13 02:31:04;;;;;;;0.73;0.30;;;7.20;99.90;;;;;;5019991;28;20080;-76
2023/04/13 02:33:30;;;;;;;1.88;1.30;;;7.20;99.90;;;;;;5004535;28;20049;-75
2023/04/13 02:35:56;;;;;;;1.50;0.73;;;7.20;99.90;;;;;;5003184;28;20396;-75
2023/04/13 02:38:22;;;;;;;0.30;0.30;;;7.10;99.90;;;;;;5004590;28;20049;-76
2023/04/13 02:40:52;;;;;;;0.03;0.03;;;7.10;99.90;;;;;;5003536;28;20100;-76
2023/04/13 02:43:18;;;;;;;1.13;0.30;;;7.00;99.90;;;;;;5004454;28;20041;-75
2023/04/13 02:45:43;;;;;;;0.35;0.35;;;7.00;99.90;;;;;;5004449;28;20747;-76
2023/04/13 02:48:09;;;;;;;0.22;0.20;;;6.90;99.90;;;;;;4974817;28;20089;-76
2023/04/13 02:50:35;;;;;;;0.20;0.20;;;6.80;99.90;;;;;;4984562;28;20065;-75
2023/04/13 02:53:00;;;;;;;0.10;0.10;;;6.80;99.90;;;;;;4983009;28;20100;-76
2023/04/13 02:55:26;;;;;;;0.77;0.77;;;6.80;99.90;;;;;;4983600;28;20052;-76
2023/04/13 02:57:52;;;;;;;0.65;0.20;;;6.80;99.90;;;;;;4985324;28;20069;-77
2023/04/13 03:00:19;;;;;;;0.95;0.75;;;6.80;99.90;;;;;;4988209;28;20046;-76
2023/04/13 03:02:45;;;;;;;1.75;0.52;;;6.80;99.90;;;;;;5003160;28;20549;-76
2023/04/13 03:05:11;;;;;;;1.02;0.52;;;6.80;99.90;;;;;;5004359;28;20053;-76
2023/04/13 03:07:37;;;;;;;0.13;0.13;;;6.80;99.90;;;;;;5003297;28;20042;-77
2023/04/13 03:10:07;;;;;;;0.30;0.30;;;6.80;99.90;;;;;;5004401;28;20046;-77
2023/04/13 03:12:33;;;;;;;0.80;0.80;;;6.80;99.90;;;;;;5002792;28;20058;-75
2023/04/13 03:15:01;;;;;;;1.05;0.68;;;6.90;99.90;;;;;;5004066;28;20038;-77
2023/04/13 03:17:28;;;;;;;1.00;0.98;;;6.90;99.90;;;;;;5004170;28;20042;-76
2023/04/13 03:19:55;;;;;;;1.60;1.23;;;6.90;99.90;;;;;;5004581;28;20415;-76
2023/04/13 03:22:20;;;;;;;1.45;0.50;;;6.90;99.90;;;;;;5003367;28;20561;-76
2023/04/13 03:24:46;;;;;;;0.68;0.60;;;6.90;99.90;;;;;;5003986;28;20049;-77
2023/04/13 03:27:11;;;;;;;0.63;0.60;;;7.00;99.90;;;;;;5002829;28;20042;-77
2023/04/13 03:29:37;;;;;;;0.70;0.57;;;7.00;99.90;;;;;;5002366;28;20143;-77
2023/04/13 03:32:03;;;;;;;1.65;1.13;;;6.90;99.90;;;;;;5019020;28;20606;-76
2023/04/13 03:34:28;;;;;;;1.17;0.32;;;7.00;99.90;;;;;;5003462;28;20038;-77
2023/04/13 03:36:54;;;;;;;0.60;0.55;;;7.00;99.90;;;;;;5007267;28;20076;-77
2023/04/13 03:39:19;;;;;;;0.63;0.63;;;6.90;99.90;;;;;;5007248;28;20053;-77
2023/04/13 03:41:45;;;;;;;1.98;1.45;;;6.90;99.90;;;;;;5007852;28;20053;-77
2023/04/13 03:44:11;;;;;;;0.65;0.43;;;6.90;99.90;;;;;;5007841;28;20049;-76
2023/04/13 03:46:36;;;;;;;0.63;0.43;;;6.90;99.90;;;;;;5007248;28;20451;-76
2023/04/13 03:49:05;;;;;;;0.50;0.40;;;6.80;99.90;;;;;;4988664;28;20041;-75
2023/04/13 03:51:31;;;;;;;1.55;1.15;;;6.80;99.90;;;;;;5001951;28;20129;-77
2023/04/13 03:53:57;;;;;;;2.53;0.50;;;6.80;99.90;;;;;;4988105;28;20125;-75
2023/04/13 03:56:22;;;;;;;0.55;0.47;;;6.80;99.90;;;;;;4988648;28;20715;-76
2023/04/13 03:58:48;;;;;;;0.70;0.70;;;6.80;99.90;;;;;;4987814;28;20110;-78
2023/04/13 04:01:14;;;;;;;0.68;0.68;;;6.80;99.90;;;;;;5002107;28;20575;-77
2023/04/13 04:03:39;;;;;;;0.50;0.45;;;6.80;99.90;;;;;;5006234;28;20546;-77
2023/04/13 04:06:06;;;;;;;1.98;1.20;;;6.80;99.90;;;;;;5006044;28;20078;-75
2023/04/13 04:08:31;;;;;;;0.93;0.90;;;6.80;99.90;;;;;;4988706;28;20046;-77
2023/04/13 04:11:00;;;;;;;2.92;1.10;;;6.80;99.90;;;;;;5007592;28;20096;-77
2023/04/13 04:13:26;;;;;;;2.85;0.80;;;6.80;99.90;;;;;;5005743;28;20064;-76
2023/04/13 04:15:51;;;;;;;2.15;0.95;;;6.70;99.90;;;;;;5006339;28;20393;-76
2023/04/13 04:18:17;;;;;;;2.22;1.27;;;6.80;99.90;;;;;;5007353;28;20046;-77
2023/04/13 04:20:43;;;;;;;1.83;0.93;;;6.70;99.90;;;;;;5007220;28;20041;-77
2023/04/13 04:23:09;;;;;;;0.75;0.75;;;6.70;99.90;;;;;;5004761;28;20056;-78
2023/04/13 04:25:36;;;;;;;3.90;1.05;;;6.80;99.90;;;;;;5006868;28;20038;-75
2023/04/13 04:28:03;;;;;;;0.85;0.85;;;6.70;99.90;;;;;;5007235;28;20054;-77
2023/04/13 04:30:29;;;;;;;1.67;0.88;;;6.70;99.90;;;;;;5006827;28;20492;-75
2023/04/13 04:32:57;;;;;;;1.08;1.05;;;6.70;99.90;;;;;;5006353;28;20044;-76
2023/04/13 04:35:24;;;;;;;2.75;0.80;;;6.70;99.90;;;;;;5007682;28;20049;-76
2023/04/13 04:37:54;;;;;;;2.13;1.20;;;6.70;99.90;;;;;;5006530;28;20042;-77
2023/04/13 04:40:21;;;;;;;0.77;0.75;;;6.70;99.90;;;;;;5005924;28;20050;-77
2023/04/13 04:42:47;;;;;;;0.57;0.57;;;6.70;99.90;;;;;;5005169;28;20045;-75
2023/04/13 04:45:15;;;;;;;0.93;0.90;;;6.60;99.90;;;;;;5000750;28;20056;-78
2023/04/13 04:47:44;;;;;;;0.88;0.88;;;6.70;99.90;;;;;;4980242;28;20046;-78
2023/04/13 04:50:11;;;;;;;5.72;0.68;;;6.60;99.90;;;;;;4969950;28;20085;-74
2023/04/13 04:52:37;;;;;;;1.70;1.42;;;6.60;99.90;;;;;;4999729;28;20077;-77
2023/04/13 04:55:04;;;;;;;1.00;0.93;;;6.60;99.90;;;;;;4989017;28;20073;-77
2023/04/13 04:57:33;;;;;;;1.50;1.40;;;6.60;99.90;;;;;;5005099;28;20046;-75
2023/04/13 05:00:00;;;;;;;1.48;1.38;;;6.60;99.90;;;;;;5006819;28;20077;-77
2023/04/13 05:02:26;;;;;;;3.05;1.13;;;6.60;99.90;;;;;;5004756;28;20124;-76
2023/04/13 05:04:57;;;;;;;6.32;2.70;;;6.60;99.90;;;;;;5005631;28;20180;-76
2023/04/13 05:07:23;;;;;;;1.10;1.00;;;6.60;99.90;;;;;;5018514;28;20041;-75
2023/04/13 05:09:48;;;;;;;3.25;0.80;;;6.60;99.90;;;;;;5006030;28;20475;-77
2023/04/13 05:12:14;;;;;;;2.15;1.25;;;6.60;99.90;;;;;;4986009;28;20058;-77
2023/04/13 05:14:40;;;;;;;6.88;1.23;;;6.60;99.90;;;;;;5005127;28;20058;-76
2023/04/13 05:17:06;;;;;;;1.55;0.98;;;6.60;99.90;;;;;;5006410;28;20108;-78
2023/04/13 05:19:33;;;;;;;3.03;2.20;;;6.60;99.90;;;;;;5004429;28;20053;-78
2023/04/13 05:22:00;;;;;;;2.50;1.63;;;6.60;99.90;;;;;;5004438;28;20124;-77
2023/04/13 05:24:26;;;;;;;0.75;0.70;;;6.70;99.90;;;;;;4991730;28;20420;-78
2023/04/13 05:26:51;;;;;;;3.63;1.08;;;6.70;99.90;;;;;;4996003;28;20041;-76
2023/04/13 05:29:17;;;;;;;2.47;2.28;;;6.70;99.90;;;;;;5004926;28;20045;-77
2023/04/13 05:31:43;;;;;;;1.77;0.55;;;6.70;99.90;;;;;;4998384;28;20097;-77
2023/04/13 05:34:08;;;;;;;8.52;1.77;;;6.70;99.90;;;;;;5003203;28;20041;-75
2023/04/13 05:36:34;;;;;;;0.45;0.38;;;6.70;99.90;;;;;;5003353;28;20041;-76
2023/04/13 05:39:01;;;;;;;1.35;0.95;;;6.70;99.90;;;;;;5005095;28;20072;-77
2023/04/13 05:41:27;;;;;;;0.82;0.75;;;6.70;99.90;;;;;;5003618;28;20037;-79
2023/04/13 05:43:52;;;;;;;1.90;1.38;;;6.80;99.90;;;;;;5002889;28;20101;-79
2023/04/13 05:46:18;;;;;;;0.50;0.50;;;6.80;99.90;;;;;;4996514;28;20057;-79
2023/04/13 05:48:43;;;;;;;13.27;1.33;;;6.80;99.90;;;;;;4994822;28;20112;-78
2023/04/13 05:51:14;;;;;;;2.15;0.95;;;6.80;99.90;;;;;;4998850;28;20030;-77
2023/04/13 05:53:40;;;;;;;1.15;0.43;;;6.80;99.90;;;;;;4999644;28;20038;-79
2023/04/13 05:56:06;;;;;;;1.35;1.13;;;6.80;99.90;;;;;;5000933;28;20125;-77
2023/04/13 05:58:33;;;;;;;2.10;1.60;;;6.80;99.90;;;;;;5000213;28;20038;-78
2023/04/13 06:01:00;;;;;;;0.50;0.50;;;6.80;99.90;;;;;;5003219;28;20108;-79
2023/04/13 06:03:28;;;;;;;1.52;0.90;;;6.80;99.90;;;;;;5002631;28;20046;-77
2023/04/13 06:05:54;;;;;;;0.90;0.90;;;6.80;99.90;;;;;;4986965;28;20084;-79
2023/04/13 06:08:20;;;;;;;2.67;1.45;;;6.80;99.90;;;;;;5003073;28;20603;-78
2023/04/13 06:10:47;;;;;;;3.78;1.58;;;6.80;99.90;;;;;;5005031;28;20504;-79
2023/04/13 06:13:13;;;;;;;0.68;0.65;;;6.80;99.90;;;;;;4984606;28;20046;-79
2023/04/13 06:15:39;;;;;;;5.25;1.10;;;6.80;99.90;;;;;;5003166;28;20049;-78
2023/04/13 06:18:05;;;;;;;1.10;0.88;;;6.80;99.90;;;;;;5003360;28;20607;-74
2023/04/13 06:20:32;;;;;;;1.55;1.33;;;6.90;99.90;;;;;;4997068;28;20077;-79
2023/04/13 06:22:58;;;;;;;0.98;0.95;;;6.90;99.90;;;;;;4994052;28;20043;-77
2023/04/13 06:25:24;;;;;;;2.03;1.38;;;6.90;99.90;;;;;;4990617;28;20048;-79
2023/04/13 06:27:53;;;;;;;5.07;1.88;;;6.90;99.90;;;;;;4992898;28;20046;-74
2023/04/13 06:30:18;;;;;;;3.47;1.23;;;7.00;99.90;;;;;;4993895;28;20069;-81
2023/04/13 06:32:44;;;;;;;1.27;1.20;;;7.00;99.90;;;;;;5003769;28;20088;-81
2023/04/13 06:35:11;;;;;;;2.53;1.77;;;7.00;99.90;;;;;;4987194;28;21248;-79
2023/04/13 06:37:38;;;;;;;3.30;1.60;;;7.00;99.90;;;;;;5002708;28;20077;-76
2023/04/13 06:40:14;;;;;;;3.10;1.58;;;7.00;99.90;;;;;;5004728;28;20046;-80
2023/04/13 06:42:41;;;;;;;3.40;1.60;;;7.00;99.90;;;;;;5004932;28;20072;-81
2023/04/13 06:45:08;;;;;;;11.50;2.92;;;7.00;99.90;;;;;;5003756;28;20057;-81
2023/04/13 06:47:35;;;;;;;3.55;2.25;;;7.10;99.90;;;;;;5001805;28;20038;-78
2023/04/13 06:50:06;;;;;;;0.85;0.80;;;7.10;99.90;;;;;;4986082;28;20045;-80
2023/04/13 06:52:32;;;;;;;1.50;1.37;;;7.20;99.90;;;;;;4982391;28;20046;-76
2023/04/13 06:54:58;;;;;;;5.63;1.52;;;7.20;99.90;;;;;;4996104;28;20054;-76
2023/04/13 06:57:23;;;;;;;2.03;1.42;;;7.20;99.90;;;;;;5002775;28;20076;-74
2023/04/13 06:59:49;;;;;;;1.00;1.00;;;7.20;99.90;;;;;;5002098;28;20053;-75
2023/04/13 07:02:15;;;;;;;1.52;1.42;;;7.30;99.90;;;;;;4997621;28;20046;-77
2023/04/13 07:04:40;;;;;;;1.75;1.25;;;7.30;99.90;;;;;;5007003;28;20078;-75
2023/04/13 07:07:06;;;;;;;0.70;0.60;;;7.30;99.90;;;;;;4985219;28;20069;-75
2023/04/13 07:09:31;;;;;;;4.80;1.17;;;7.30;99.90;;;;;;5001612;28;20041;-76
2023/04/13 07:12:02;;;;;;;6.13;1.08;;;7.30;99.90;;;;;;4999181;28;20057;-75
2023/04/13 07:14:34;;;;;;;1.13;1.13;;;7.30;99.90;;;;;;4981043;28;20053;-77
2023/04/13 07:17:01;;;;;;;1.33;1.23;;;7.30;99.90;;;;;;4997766;28;20405;-84
2023/04/13 07:19:29;;;;;;;1.65;0.52;;;7.40;99.90;;;;;;5001567;28;20129;-76
2023/04/13 07:21:54;;;;;;;2.45;1.40;;;7.30;99.90;;;;;;4994108;28;20042;-75
2023/04/13 07:24:20;;;;;;;3.60;1.05;;;7.40;99.90;;;;;;4984209;28;20385;-76
2023/04/13 07:26:45;;;;;;;1.17;0.50;;;7.40;99.90;;;;;;4982648;28;20074;-77
2023/04/13 07:29:14;;;;;;;0.73;0.73;;;7.40;99.90;;;;;;4992089;28;20464;-74
2023/04/13 07:31:39;;;;;;;3.72;1.08;;;7.40;99.90;;;;;;4985031;28;20046;-76
2023/04/13 07:34:05;;;;;;;2.05;1.52;;;7.40;99.90;;;;;;5003687;28;20046;-76
2023/04/13 07:36:31;;;;;;;0.77;0.70;;;7.50;99.90;;;;;;4971845;28;20042;-76
2023/04/13 07:38:57;;;;;;;3.30;1.10;;;7.50;99.90;;;;;;5003346;28;20050;-76
2023/04/13 07:41:23;;;;;;;5.43;0.95;;;7.50;99.90;;;;;;5002253;28;20161;-76
2023/04/13 07:43:49;;;;;;;6.22;0.95;;;7.60;99.90;;;;;;5001986;28;20107;-76
2023/04/13 07:46:15;;;;;;;0.50;0.35;;;7.60;99.90;;;;;;5003002;28;20046;-77
2023/04/13 07:48:41;;;;;;;0.60;0.60;;;7.60;99.90;;;;;;5002349;28;20064;-77
2023/04/13 07:51:15;;;;;;;0.20;0.20;;;7.50;99.90;;;;;;5002115;28;20096;-77
2023/04/13 07:53:40;;;;;;;1.33;0.73;;;7.50;99.90;;;;;;5000931;28;20129;-76
2023/04/13 07:56:06;;;;;;;0.20;0.20;;;7.40;99.90;;;;;;5002906;28;20506;-77
2023/04/13 07:58:32;;;;;;;0.43;0.22;;;7.40;99.90;;;;;;5000784;28;20050;-77
2023/04/13 08:00:57;;;;;;;0.17;0.17;;;7.30;99.90;;;;;;5002564;28;20046;-76
2023/04/13 08:03:23;;;;;;;0.20;0.20;;;7.20;99.90;;;;;;5003087;28;20555;-77
2023/04/13 08:05:49;;;;;;;0.30;0.28;;;7.10;99.90;;;;;;5000381;28;20148;-77
2023/04/13 08:08:15;;;;;;;1.10;0.20;;;7.10;99.90;;;;;;5002464;28;20508;-77
2023/04/13 08:10:41;;;;;;;0.65;0.65;;;7.10;99.90;;;;;;5002189;28;20111;-76
2023/04/13 08:13:07;;;;;;;0.08;0.08;;;7.10;99.90;;;;;;5002090;28;20080;-76
2023/04/13 08:15:32;;;;;;;0.45;0.45;;;7.10;99.90;;;;;;5002425;28;20042;-75
2023/04/13 08:17:58;;;;;;;0.80;0.80;;;7.10;99.90;;;;;;5001253;28;20044;-77
2023/04/13 08:20:24;;;;;;;0.70;0.60;;;7.20;99.90;;;;;;5002424;28;20381;-77
2023/04/13 08:22:49;;;;;;;4.72;0.82;;;7.30;99.90;;;;;;5004891;28;20044;-75
2023/04/13 08:25:16;;;;;;;1.67;1.13;;;7.50;99.90;;;;;;5006125;28;20125;-77
2023/04/13 08:27:42;;;;;;;0.35;0.35;;;7.50;99.90;;;;;;5005912;28;20556;-77
2023/04/13 08:30:10;;;;;;;3.05;0.40;;;7.60;99.90;;;;;;5005784;28;20034;-77
2023/04/13 08:32:36;;;;;;;0.68;0.40;;;7.50;99.90;;;;;;5004345;28;20046;-75
2023/04/13 08:35:06;;;;;;;0.32;0.30;;;7.60;99.90;;;;;;5005948;28;20056;-77
2023/04/13 08:37:33;;;;;;;1.35;0.75;;;7.50;99.90;;;;;;5004637;28;20120;-77
2023/04/13 08:39:59;;;;;;;1.75;0.47;;;7.50;99.90;;;;;;5004452;28;20046;-77
2023/04/13 08:42:29;;;;;;;0.40;0.30;;;7.50;99.90;;;;;;5005578;28;20044;-77
2023/04/13 08:45:00;;;;;;;0.40;0.40;;;7.50;99.90;;;;;;5005612;28;20125;-76
2023/04/13 08:47:27;;;;;;;3.13;0.47;;;7.50;99.90;;;;;;4997549;28;20153;-75
2023/04/13 08:49:57;;;;;;;1.20;0.73;;;7.60;99.90;;;;;;4984917;28;20051;-75
2023/04/13 08:52:23;;;;;;;2.17;0.52;;;7.60;99.90;;;;;;4985264;28;20596;-76
2023/04/13 08:54:49;;;;;;;0.95;0.40;;;7.60;99.90;;;;;;4985583;28;20053;-75
2023/04/13 08:57:15;;;;;;;0.20;0.20;;;7.70;99.90;;;;;;4984870;28;20398;-78
2023/04/13 08:59:43;;;;;;;1.35;0.90;;;7.70;99.90;;;;;;4985682;28;20061;-75
2023/04/13 09:02:10;;;;;;;0.60;0.60;;;7.80;99.90;;;;;;4985836;28;20034;-75
2023/04/13 09:04:37;;;;;;;1.75;0.82;;;7.80;99.90;;;;;;4985425;28;20038;-78
2023/04/13 09:07:03;;;;;;;3.83;1.23;;;7.90;99.90;;;;;;4985031;28;20540;-78
2023/04/13 09:09:31;;;;;;;0.20;0.20;;;7.90;99.90;;;;;;4983960;28;20050;-76
2023/04/13 09:11:57;;;;;;;2.35;0.63;;;8.00;99.90;;;;;;4985355;28;20334;-78
2023/04/13 09:14:23;;;;;;;2.15;0.43;;;8.00;99.90;;;;;;4986485;28;20050;-79
2023/04/13 09:16:49;;;;;;;1.15;0.45;;;8.10;99.90;;;;;;4968098;28;20093;-78
2023/04/13 09:19:16;;;;;;;6.47;0.73;;;8.10;99.90;;;;;;4983948;28;20101;-77
2023/04/13 09:21:43;;;;;;;5.78;0.88;;;8.20;99.90;;;;;;4982786;28;20039;-79
2023/04/13 09:24:09;;;;;;;0.45;0.45;;;8.20;99.90;;;;;;4968213;28;20074;-78
2023/04/13 09:26:40;;;;;;;1.65;0.35;;;8.20;99.90;;;;;;4985247;28;20034;-78
2023/04/13 09:29:08;;;;;;;0.65;0.38;;;8.20;99.90;;;;;;4984105;28;20054;-79
2023/04/13 09:31:37;;;;;;;0.15;0.15;;;8.20;99.90;;;;;;4983604;28;20070;-77
2023/04/13 09:34:03;;;;;;;0.52;0.30;;;8.30;99.90;;;;;;4983889;28;20038;-77
2023/04/13 09:36:29;;;;;;;0.63;0.13;;;8.40;99.90;;;;;;4983149;28;20331;-78
2023/04/13 09:38:56;;;;;;;1.48;0.95;;;8.30;99.90;;;;;;4967805;28;20049;-76
2023/04/13 09:41:36;;;;;;;0.20;0.20;;;8.30;99.90;;;;;;4985503;28;20042;-77
2023/04/13 09:44:13;;;;;;;0.40;0.30;;;8.40;99.90;;;;;;4967584;28;20105;-76
2023/04/13 09:46:39;;;;;;;2.03;1.23;;;8.40;99.90;;;;;;4983799;28;20051;-76
2023/04/13 09:49:05;;;;;;;0.63;0.30;;;8.40;99.90;;;;;;4986862;28;20045;-78
2023/04/13 09:51:39;;;;;;;1.05;0.65;;;8.50;99.90;;;;;;5003248;28;20038;-79
2023/04/13 09:54:06;;;;;;;4.63;0.52;;;8.50;99.90;;;;;;5003277;28;20050;-77
2023/04/13 09:56:45;;;;;;;8.27;0.93;;;8.50;99.90;;;;;;5003034;28;20138;-79
2023/04/13 09:59:12;;;;;;;2.90;1.08;;;8.50;99.90;;;;;;5004140;28;20049;-79
2023/04/13 10:01:39;;;;;;;1.27;0.93;;;8.60;99.90;;;;;;5004055;28;20056;-79
2023/04/13 10:04:07;;;;;;;0.88;0.80;;;8.60;99.90;;;;;;5003623;28;20660;-77
2023/04/13 10:06:40;;;;;;;1.88;0.93;;;8.60;99.90;;;;;;5004501;28;20073;-78
2023/04/13 10:09:06;;;;;;;0.82;0.47;;;8.50;99.90;;;;;;5003401;28;20568;-76
2023/04/13 10:11:48;;;;;;;3.13;1.30;;;8.50;99.90;;;;;;5002676;28;20076;-76
2023/04/13 10:14:26;;;;;;;0.55;0.55;;;8.50;99.90;;;;;;5003826;28;20045;-77
2023/04/13 10:17:04;;;;;;;0.98;0.98;;;8.40;99.90;;;;;;4985175;28;20065;-78
2023/04/13 10:19:34;;;;;;;0.40;0.40;;;8.30;99.90;;;;;;5019721;28;20098;-78
2023/04/13 10:22:02;;;;;;;0.98;0.25;;;8.20;99.90;;;;;;5002230;28;20437;-77
2023/04/13 10:24:28;;;;;;;0.20;0.20;;;8.10;99.90;;;;;;5002781;28;20629;-78
2023/04/13 10:26:55;;;;;;;0.25;0.25;;;8.00;99.90;;;;;;5003487;28;20033;-79
2023/04/13 10:29:28;;;;;;;0.38;0.32;;;7.90;99.90;;;;;;5004916;28;20048;-77
2023/04/13 10:32:01;;;;;;;0.45;0.45;;;7.80;99.90;;;;;;5003192;28;20062;-78
2023/04/13 10:34:29;;;;;;;0.90;0.90;;;7.80;99.90;;;;;;4988449;28;20493;-79
2023/04/13 10:36:57;;;;;;;0.25;0.17;;;7.80;99.90;;;;;;4993795;28;20159;-76
2023/04/13 10:39:27;;;;;;;0.80;0.47;;;7.80;99.90;;;;;;5002568;28;20042;-76
2023/04/13 10:42:00;;;;;;;3.05;1.88;;;7.80;99.90;;;;;;4996594;28;20049;-78
2023/04/13 10:44:26;;;;;;;2.05;0.68;;;7.90;99.90;;;;;;5001531;28;20073;-77
2023/04/13 10:46:52;;;;;;;1.15;0.70;;;8.00;99.90;;;;;;4979737;28;20038;-79
2023/04/13 10:49:29;;;;;;;2.20;0.65;;;8.00;99.90;;;;;;4987521;28;20046;-80
2023/04/13 10:51:55;;;;;;;0.90;0.52;;;8.10;99.90;;;;;;5003350;28;20172;-79
2023/04/13 10:54:22;;;;;;;4.80;1.63;;;8.20;99.90;;;;;;5002665;28;20128;-78
2023/04/13 10:57:01;;;;;;;1.45;0.82;;;8.30;99.90;;;;;;5002336;28;20059;-79
2023/04/13 10:59:57;;;;;;;1.67;0.40;;;8.20;99.90;;;;;;5001870;28;20050;-78
2023/04/13 11:02:30;;;;;;;1.10;1.02;;;8.10;99.90;;;;;;5002243;28;20045;-77
2023/04/13 11:04:56;;;;;;;0.38;0.30;;;8.10;99.90;;;;;;4999795;28;20073;-80
2023/04/13 11:07:24;;;;;;;1.00;0.40;;;8.00;99.90;;;;;;5003242;28;20046;-81
2023/04/13 11:09:50;;;;;;;1.40;0.98;;;8.00;99.90;;;;;;5002564;28;20049;-79
2023/04/13 11:12:16;;;;;;;0.40;0.30;;;8.00;99.90;;;;;;5000596;28;20038;-79
2023/04/13 11:14:49;;;;;;;0.38;0.38;;;8.00;99.90;;;;;;4979053;28;20424;-80
2023/04/13 11:17:17;;;;;;;0.28;0.28;;;8.10;99.90;;;;;;5002083;28;20547;-81
2023/04/13 11:19:53;;;;;;;1.98;1.25;;;8.10;99.90;;;;;;5018614;28;20048;-81
2023/04/13 11:22:22;;;;;;;1.10;0.98;;;8.20;99.90;;;;;;5004469;28;20081;-78
2023/04/13 11:24:48;;;;;;;1.55;1.38;;;8.20;99.90;;;;;;4999001;28;20049;-77
2023/04/13 11:27:22;;;;;;;5.13;2.67;;;8.30;99.90;;;;;;5004576;28;20129;-78
2023/04/13 11:30:05;;;;;;;3.35;1.40;;;8.40;99.90;;;;;;5002352;28;20104;-79
2023/04/13 11:32:35;;;;;;;11.25;1.30;;;8.50;99.90;;;;;;4998551;28;20045;-78
2023/04/13 11:35:07;;;;;;;1.40;1.02;;;8.50;99.90;;;;;;5002146;28;20412;-79
2023/04/13 11:37:40;;;;;;;3.45;1.58;;;8.60;99.90;;;;;;5001313;28;20042;-79
2023/04/13 11:40:19;;;;;;;1.77;1.23;;;8.60;99.90;;;;;;5003163;28;20050;-79
2023/04/13 11:42:46;;;;;;;4.03;2.00;;;8.70;99.90;;;;;;5002382;28;20598;-77
2023/04/13 11:45:15;;;;;;;3.17;2.28;;;8.70;99.90;;;;;;5003152;28;20342;-77
2023/04/13 11:47:45;;;;;;;4.03;1.45;;;8.70;99.90;;;;;;4999696;28;20524;-79
2023/04/13 11:50:11;;;;;;;2.90;1.33;;;8.80;99.90;;;;;;4983785;28;20049;-75
2023/04/13 11:52:39;;;;;;;4.10;1.10;;;8.80;99.90;;;;;;4984874;28;20073;-83
2023/04/13 11:55:06;;;;;;;2.45;1.27;;;8.80;99.90;;;;;;5004425;28;20053;-82
2023/04/13 11:57:32;;;;;;;1.80;0.80;;;8.90;99.90;;;;;;4998798;28;20043;-78
2023/04/13 11:59:59;;;;;;;2.67;1.67;;;8.90;99.90;;;;;;5006409;28;20491;-80
2023/04/13 12:02:29;;;;;;;2.50;2.13;;;8.90;99.90;;;;;;5001450;28;20121;-77
2023/04/13 12:04:55;;;;;;;6.22;1.65;;;8.90;99.90;;;;;;4987318;28;20489;-78
2023/04/13 12:07:21;;;;;;;4.88;2.95;;;9.00;99.90;;;;;;4988921;28;20092;-81
2023/04/13 12:09:50;;;;;;;1.48;0.95;;;9.00;99.90;;;;;;5005888;28;20452;-83
2023/04/13 12:12:23;;;;;;;7.03;2.67;;;9.00;99.90;;;;;;5007226;28;20076;-80
2023/04/13 12:14:59;;;;;;;1.70;0.73;;;9.10;99.90;;;;;;5007623;28;20045;-80
2023/04/13 12:17:32;;;;;;;6.05;1.70;;;9.10;99.90;;;;;;5006103;28;20038;-77
2023/04/13 12:19:59;;;;;;;7.55;1.80;;;9.10;99.90;;;;;;5007482;28;20046;-77
2023/04/13 12:22:55;;;;;;;4.30;0.80;;;9.10;99.90;;;;;;5004969;28;20057;-81
2023/04/13 12:25:22;;;;;;;3.95;1.40;;;9.10;99.90;;;;;;4990237;28;20089;-81
2023/04/13 12:27:51;;;;;;;2.42;1.02;;;9.20;99.90;;;;;;5007323;28;20112;-80
2023/04/13 12:30:19;;;;;;;2.97;1.27;;;9.20;99.90;;;;;;4989787;28;20042;-80
2023/04/13 12:32:53;;;;;;;7.40;2.30;;;9.20;99.90;;;;;;5005440;28;20516;-79
2023/04/13 12:35:19;;;;;;;7.57;2.83;;;9.20;99.90;;;;;;5004404;28;20055;-78
2023/04/13 12:37:46;;;;;;;5.72;1.63;;;9.20;99.90;;;;;;4987709;28;20060;-81
2023/04/13 12:40:15;;;;;;;7.32;1.55;;;9.20;99.90;;;;;;4989086;28;20088;-81
2023/04/13 12:42:45;;;;;;;8.15;2.25;;;9.20;99.90;;;;;;4988237;28;20121;-77
2023/04/13 12:45:12;;;;;;;1.02;1.02;;;9.20;99.90;;;;;;5005196;28;20065;-82
2023/04/13 12:47:38;;;;;;;3.45;1.50;;;9.30;99.90;;;;;;5004802;28;20041;-80
2023/04/13 12:50:05;;;;;;;3.65;2.08;;;9.30;99.90;;;;;;4984341;28;20404;-77
2023/04/13 12:52:31;;;;;;;1.08;0.75;;;9.30;99.90;;;;;;4991009;28;20447;-80
2023/04/13 12:54:58;;;;;;;4.15;1.35;;;9.20;99.90;;;;;;5005087;28;20080;-76
2023/04/13 12:57:25;;;;;;;2.55;0.90;;;9.30;99.90;;;;;;5004950;28;20374;-80
2023/04/13 12:59:50;;;;;;;1.33;0.88;;;9.20;99.90;;;;;;5005455;28;20054;-79
2023/04/13 13:02:16;;;;;;;1.88;0.60;;;9.30;99.90;;;;;;5006403;28;20408;-78